sensor_id;sensor_type;location;lat;lon;timestamp;P1;durP1;ratioP1;P2;durP2;ratioP2
6348;SDS011;3207;42.648;23.406;2023-07-13T00:00:10;14.02;;;8.52;;
6348;SDS011;3207;42.648;23.406;2023-07-13T00:02:40;14.25;;;7.75;;
6348;SDS011;3207;42.648;23.406;2023-07-13T00:05:07;15.27;;;7.32;;
6348;SDS011;3207;42.648;23.406;2023-07-13T00:07:34;12.02;;;6.72;;
6348;SDS011;3207;42.648;23.406;2023-07-13T00:10:02;14.65;;;7.75;;
6348;SDS011;3207;42.648;23.406;2023-07-13T00:12:30;12.55;;;7.57;;
6348;SDS011;3207;42.648;23.406;2023-07-13T00:14:59;9.38;;;6.63;;
6348;SDS011;3207;42.648;23.406;2023-07-13T00:17:29;11.15;;;7.60;;
6348;SDS011;3207;42.648;23.406;2023-07-13T00:19:56;16.45;;;7.63;;
6348;SDS011;3207;42.648;23.406;2023-07-13T00:22:23;11.90;;;7.22;;
6348;SDS011;3207;42.648;23.406;2023-07-13T00:24:51;24.13;;;7.78;;
6348;SDS011;3207;42.648;23.406;2023-07-13T00:27:21;12.95;;;7.88;;
6348;SDS011;3207;42.648;23.406;2023-07-13T00:29:48;10.57;;;7.57;;
6348;SDS011;3207;42.648;23.406;2023-07-13T00:32:14;16.85;;;8.32;;
6348;SDS011;3207;42.648;23.406;2023-07-13T00:34:43;14.70;;;7.78;;
6348;SDS011;3207;42.648;23.406;2023-07-13T00:37:10;13.88;;;7.45;;
6348;SDS011;3207;42.648;23.406;2023-07-13T00:39:37;17.08;;;8.55;;
6348;SDS011;3207;42.648;23.406;2023-07-13T00:42:06;13.68;;;7.82;;
6348;SDS011;3207;42.648;23.406;2023-07-13T00:44:33;15.68;;;8.63;;
6348;SDS011;3207;42.648;23.406;2023-07-13T00:47:00;12.55;;;8.20;;
6348;SDS011;3207;42.648;23.406;2023-07-13T00:49:28;13.45;;;7.63;;
6348;SDS011;3207;42.648;23.406;2023-07-13T00:52:00;12.95;;;8.07;;
6348;SDS011;3207;42.648;23.406;2023-07-13T00:54:30;13.25;;;8.82;;
6348;SDS011;3207;42.648;23.406;2023-07-13T00:57:08;15.57;;;8.85;;
6348;SDS011;3207;42.648;23.406;2023-07-13T00:59:37;14.95;;;8.13;;
6348;SDS011;3207;42.648;23.406;2023-07-13T01:02:08;18.33;;;8.52;;
6348;SDS011;3207;42.648;23.406;2023-07-13T01:04:36;14.32;;;8.48;;
6348;SDS011;3207;42.648;23.406;2023-07-13T01:07:05;13.40;;;9.38;;
6348;SDS011;3207;42.648;23.406;2023-07-13T01:09:33;14.52;;;9.20;;
6348;SDS011;3207;42.648;23.406;2023-07-13T01:12:00;15.75;;;8.40;;
6348;SDS011;3207;42.648;23.406;2023-07-13T01:14:27;23.40;;;8.93;;
6348;SDS011;3207;42.648;23.406;2023-07-13T01:16:53;13.05;;;8.20;;
6348;SDS011;3207;42.648;23.406;2023-07-13T01:19:26;12.85;;;8.90;;
6348;SDS011;3207;42.648;23.406;2023-07-13T01:22:04;12.77;;;8.30;;
6348;SDS011;3207;42.648;23.406;2023-07-13T01:24:33;18.77;;;9.65;;
6348;SDS011;3207;42.648;23.406;2023-07-13T01:27:00;19.33;;;10.23;;
6348;SDS011;3207;42.648;23.406;2023-07-13T01:29:27;15.70;;;9.43;;
6348;SDS011;3207;42.648;23.406;2023-07-13T01:31:54;15.40;;;9.48;;
6348;SDS011;3207;42.648;23.406;2023-07-13T01:34:21;17.23;;;9.57;;
6348;SDS011;3207;42.648;23.406;2023-07-13T01:36:48;19.90;;;7.82;;
6348;SDS011;3207;42.648;23.406;2023-07-13T01:39:20;16.48;;;9.38;;
6348;SDS011;3207;42.648;23.406;2023-07-13T01:41:46;17.60;;;8.63;;
6348;SDS011;3207;42.648;23.406;2023-07-13T01:44:13;18.30;;;8.90;;
6348;SDS011;3207;42.648;23.406;2023-07-13T01:46:40;16.10;;;9.25;;
6348;SDS011;3207;42.648;23.406;2023-07-13T01:49:07;17.35;;;8.35;;
6348;SDS011;3207;42.648;23.406;2023-07-13T01:51:34;13.77;;;9.27;;
6348;SDS011;3207;42.648;23.406;2023-07-13T01:54:01;10.85;;;8.88;;
6348;SDS011;3207;42.648;23.406;2023-07-13T01:56:29;14.15;;;8.65;;
6348;SDS011;3207;42.648;23.406;2023-07-13T01:58:55;13.00;;;7.93;;
6348;SDS011;3207;42.648;23.406;2023-07-13T02:01:22;17.13;;;9.63;;
6348;SDS011;3207;42.648;23.406;2023-07-13T02:03:49;20.17;;;9.07;;
6348;SDS011;3207;42.648;23.406;2023-07-13T02:06:16;8.80;;;7.90;;
6348;SDS011;3207;42.648;23.406;2023-07-13T02:08:43;16.83;;;8.90;;
6348;SDS011;3207;42.648;23.406;2023-07-13T02:11:10;14.55;;;8.75;;
6348;SDS011;3207;42.648;23.406;2023-07-13T02:13:38;17.70;;;9.30;;
6348;SDS011;3207;42.648;23.406;2023-07-13T02:16:05;23.67;;;9.35;;
6348;SDS011;3207;42.648;23.406;2023-07-13T02:18:31;14.25;;;8.63;;
6348;SDS011;3207;42.648;23.406;2023-07-13T02:20:58;17.48;;;9.10;;
6348;SDS011;3207;42.648;23.406;2023-07-13T02:23:25;15.38;;;9.05;;
6348;SDS011;3207;42.648;23.406;2023-07-13T02:25:54;14.90;;;8.70;;
6348;SDS011;3207;42.648;23.406;2023-07-13T02:28:21;16.52;;;8.90;;
6348;SDS011;3207;42.648;23.406;2023-07-13T02:30:49;15.75;;;9.68;;
6348;SDS011;3207;42.648;23.406;2023-07-13T02:33:16;12.20;;;8.57;;
6348;SDS011;3207;42.648;23.406;2023-07-13T02:35:42;14.15;;;8.48;;
6348;SDS011;3207;42.648;23.406;2023-07-13T02:38:09;14.90;;;8.73;;
6348;SDS011;3207;42.648;23.406;2023-07-13T02:40:36;20.85;;;9.13;;
6348;SDS011;3207;42.648;23.406;2023-07-13T02:43:03;15.77;;;8.60;;
6348;SDS011;3207;42.648;23.406;2023-07-13T02:45:30;14.68;;;8.18;;
6348;SDS011;3207;42.648;23.406;2023-07-13T02:47:58;14.43;;;8.50;;
6348;SDS011;3207;42.648;23.406;2023-07-13T02:50:25;13.95;;;9.20;;
6348;SDS011;3207;42.648;23.406;2023-07-13T02:52:51;11.55;;;8.02;;
6348;SDS011;3207;42.648;23.406;2023-07-13T02:55:18;17.67;;;8.32;;
6348;SDS011;3207;42.648;23.406;2023-07-13T02:57:45;16.73;;;8.38;;
6348;SDS011;3207;42.648;23.406;2023-07-13T03:00:12;11.57;;;6.53;;
6348;SDS011;3207;42.648;23.406;2023-07-13T03:02:41;8.25;;;5.70;;
6348;SDS011;3207;42.648;23.406;2023-07-13T03:05:09;9.20;;;5.25;;
6348;SDS011;3207;42.648;23.406;2023-07-13T03:07:37;18.05;;;5.97;;
6348;SDS011;3207;42.648;23.406;2023-07-13T03:10:05;9.27;;;4.88;;
6348;SDS011;3207;42.648;23.406;2023-07-13T03:12:32;7.75;;;4.88;;
6348;SDS011;3207;42.648;23.406;2023-07-13T03:14:59;8.30;;;4.20;;
6348;SDS011;3207;42.648;23.406;2023-07-13T03:17:26;9.63;;;3.53;;
6348;SDS011;3207;42.648;23.406;2023-07-13T03:19:53;10.10;;;4.63;;
6348;SDS011;3207;42.648;23.406;2023-07-13T03:22:21;8.27;;;3.80;;
6348;SDS011;3207;42.648;23.406;2023-07-13T03:24:47;10.90;;;4.40;;
6348;SDS011;3207;42.648;23.406;2023-07-13T03:27:14;6.60;;;3.92;;
6348;SDS011;3207;42.648;23.406;2023-07-13T03:29:42;8.52;;;3.55;;
6348;SDS011;3207;42.648;23.406;2023-07-13T03:32:08;11.10;;;4.63;;
6348;SDS011;3207;42.648;23.406;2023-07-13T03:34:35;7.43;;;3.75;;
6348;SDS011;3207;42.648;23.406;2023-07-13T03:37:02;5.30;;;3.83;;
6348;SDS011;3207;42.648;23.406;2023-07-13T03:39:31;7.13;;;3.65;;
6348;SDS011;3207;42.648;23.406;2023-07-13T03:41:58;4.88;;;3.08;;
6348;SDS011;3207;42.648;23.406;2023-07-13T03:44:24;9.55;;;3.95;;
6348;SDS011;3207;42.648;23.406;2023-07-13T03:46:51;8.20;;;3.15;;
6348;SDS011;3207;42.648;23.406;2023-07-13T03:49:18;5.95;;;2.53;;
6348;SDS011;3207;42.648;23.406;2023-07-13T03:51:45;7.90;;;2.22;;
6348;SDS011;3207;42.648;23.406;2023-07-13T03:54:11;7.07;;;2.35;;
6348;SDS011;3207;42.648;23.406;2023-07-13T03:56:39;3.38;;;1.73;;
6348;SDS011;3207;42.648;23.406;2023-07-13T03:59:06;4.90;;;1.52;;
6348;SDS011;3207;42.648;23.406;2023-07-13T04:01:33;2.22;;;1.60;;
6348;SDS011;3207;42.648;23.406;2023-07-13T04:04:00;6.40;;;2.28;;
6348;SDS011;3207;42.648;23.406;2023-07-13T04:06:28;2.25;;;1.40;;
6348;SDS011;3207;42.648;23.406;2023-07-13T04:08:56;11.43;;;2.17;;
6348;SDS011;3207;42.648;23.406;2023-07-13T04:11:25;2.47;;;1.35;;
6348;SDS011;3207;42.648;23.406;2023-07-13T04:13:54;3.60;;;1.50;;
6348;SDS011;3207;42.648;23.406;2023-07-13T04:16:21;7.72;;;1.52;;
6348;SDS011;3207;42.648;23.406;2023-07-13T04:18:48;4.25;;;1.77;;
6348;SDS011;3207;42.648;23.406;2023-07-13T04:21:16;2.30;;;1.58;;
6348;SDS011;3207;42.648;23.406;2023-07-13T04:23:43;3.58;;;1.60;;
6348;SDS011;3207;42.648;23.406;2023-07-13T04:26:10;4.13;;;1.55;;
6348;SDS011;3207;42.648;23.406;2023-07-13T04:28:37;4.40;;;2.15;;
6348;SDS011;3207;42.648;23.406;2023-07-13T04:31:05;4.03;;;1.88;;
6348;SDS011;3207;42.648;23.406;2023-07-13T04:33:32;2.63;;;1.58;;
6348;SDS011;3207;42.648;23.406;2023-07-13T04:35:59;2.92;;;1.75;;
6348;SDS011;3207;42.648;23.406;2023-07-13T04:38:27;2.90;;;2.15;;
6348;SDS011;3207;42.648;23.406;2023-07-13T04:40:55;4.63;;;2.83;;
6348;SDS011;3207;42.648;23.406;2023-07-13T04:43:23;3.70;;;2.22;;
6348;SDS011;3207;42.648;23.406;2023-07-13T04:45:50;3.53;;;1.63;;
6348;SDS011;3207;42.648;23.406;2023-07-13T04:48:19;4.22;;;2.40;;
6348;SDS011;3207;42.648;23.406;2023-07-13T04:50:46;3.15;;;2.22;;
6348;SDS011;3207;42.648;23.406;2023-07-13T04:53:14;5.18;;;2.42;;
6348;SDS011;3207;42.648;23.406;2023-07-13T04:55:41;4.85;;;1.90;;
6348;SDS011;3207;42.648;23.406;2023-07-13T04:58:08;4.78;;;2.00;;
6348;SDS011;3207;42.648;23.406;2023-07-13T05:00:35;3.33;;;1.75;;
6348;SDS011;3207;42.648;23.406;2023-07-13T05:03:02;2.55;;;1.50;;
6348;SDS011;3207;42.648;23.406;2023-07-13T05:05:30;6.05;;;1.70;;
6348;SDS011;3207;42.648;23.406;2023-07-13T05:07:57;7.95;;;2.10;;
6348;SDS011;3207;42.648;23.406;2023-07-13T05:10:24;5.78;;;2.22;;
6348;SDS011;3207;42.648;23.406;2023-07-13T05:12:51;2.47;;;1.50;;
6348;SDS011;3207;42.648;23.406;2023-07-13T05:15:18;6.85;;;2.50;;
6348;SDS011;3207;42.648;23.406;2023-07-13T05:17:47;7.57;;;3.30;;
6348;SDS011;3207;42.648;23.406;2023-07-13T05:20:14;8.98;;;3.05;;
6348;SDS011;3207;42.648;23.406;2023-07-13T05:22:43;13.75;;;3.58;;
6348;SDS011;3207;42.648;23.406;2023-07-13T05:25:11;6.45;;;2.92;;
6348;SDS011;3207;42.648;23.406;2023-07-13T05:27:38;7.70;;;2.85;;
6348;SDS011;3207;42.648;23.406;2023-07-13T05:30:06;8.07;;;3.78;;
6348;SDS011;3207;42.648;23.406;2023-07-13T05:32:36;10.65;;;4.03;;
6348;SDS011;3207;42.648;23.406;2023-07-13T05:35:02;9.30;;;4.35;;
6348;SDS011;3207;42.648;23.406;2023-07-13T05:37:29;9.90;;;4.32;;
6348;SDS011;3207;42.648;23.406;2023-07-13T05:39:58;11.80;;;3.75;;
6348;SDS011;3207;42.648;23.406;2023-07-13T05:42:25;11.60;;;4.68;;
6348;SDS011;3207;42.648;23.406;2023-07-13T05:44:51;8.52;;;4.13;;
6348;SDS011;3207;42.648;23.406;2023-07-13T05:47:18;6.32;;;3.40;;
6348;SDS011;3207;42.648;23.406;2023-07-13T05:49:45;8.43;;;3.80;;
6348;SDS011;3207;42.648;23.406;2023-07-13T05:52:12;10.98;;;3.45;;
6348;SDS011;3207;42.648;23.406;2023-07-13T05:54:38;6.68;;;3.00;;
6348;SDS011;3207;42.648;23.406;2023-07-13T05:57:07;6.50;;;3.20;;
6348;SDS011;3207;42.648;23.406;2023-07-13T05:59:33;5.55;;;3.45;;
6348;SDS011;3207;42.648;23.406;2023-07-13T06:02:00;7.63;;;3.65;;
6348;SDS011;3207;42.648;23.406;2023-07-13T06:04:27;5.20;;;3.70;;
6348;SDS011;3207;42.648;23.406;2023-07-13T06:06:54;7.72;;;4.03;;
6348;SDS011;3207;42.648;23.406;2023-07-13T06:09:20;8.65;;;4.32;;
6348;SDS011;3207;42.648;23.406;2023-07-13T06:11:47;5.97;;;3.50;;
6348;SDS011;3207;42.648;23.406;2023-07-13T06:14:15;6.15;;;3.80;;
6348;SDS011;3207;42.648;23.406;2023-07-13T06:16:42;9.85;;;4.18;;
6348;SDS011;3207;42.648;23.406;2023-07-13T06:19:09;4.90;;;3.50;;
6348;SDS011;3207;42.648;23.406;2023-07-13T06:21:36;8.38;;;3.70;;
6348;SDS011;3207;42.648;23.406;2023-07-13T06:24:02;5.68;;;3.35;;
6348;SDS011;3207;42.648;23.406;2023-07-13T06:26:30;5.80;;;3.50;;
6348;SDS011;3207;42.648;23.406;2023-07-13T06:28:57;5.20;;;3.58;;
6348;SDS011;3207;42.648;23.406;2023-07-13T06:31:25;7.00;;;3.63;;
6348;SDS011;3207;42.648;23.406;2023-07-13T06:33:51;7.65;;;4.38;;
6348;SDS011;3207;42.648;23.406;2023-07-13T06:36:18;6.78;;;3.88;;
6348;SDS011;3207;42.648;23.406;2023-07-13T06:38:45;4.60;;;3.05;;
6348;SDS011;3207;42.648;23.406;2023-07-13T06:41:12;7.40;;;2.85;;
6348;SDS011;3207;42.648;23.406;2023-07-13T06:43:38;7.63;;;3.42;;
6348;SDS011;3207;42.648;23.406;2023-07-13T06:46:05;6.95;;;2.72;;
6348;SDS011;3207;42.648;23.406;2023-07-13T06:48:33;4.50;;;2.45;;
6348;SDS011;3207;42.648;23.406;2023-07-13T06:51:01;4.13;;;2.38;;
6348;SDS011;3207;42.648;23.406;2023-07-13T06:53:28;7.43;;;3.03;;
6348;SDS011;3207;42.648;23.406;2023-07-13T06:55:55;20.02;;;4.35;;
6348;SDS011;3207;42.648;23.406;2023-07-13T06:58:22;7.53;;;2.85;;
6348;SDS011;3207;42.648;23.406;2023-07-13T07:00:50;3.80;;;2.72;;
6348;SDS011;3207;42.648;23.406;2023-07-13T07:03:18;6.25;;;2.38;;
6348;SDS011;3207;42.648;23.406;2023-07-13T07:05:46;6.68;;;2.70;;
6348;SDS011;3207;42.648;23.406;2023-07-13T07:08:13;7.18;;;2.70;;
6348;SDS011;3207;42.648;23.406;2023-07-13T07:10:40;5.50;;;2.92;;
6348;SDS011;3207;42.648;23.406;2023-07-13T07:13:06;3.45;;;3.03;;
6348;SDS011;3207;42.648;23.406;2023-07-13T07:15:36;6.82;;;3.20;;
6348;SDS011;3207;42.648;23.406;2023-07-13T07:18:03;3.53;;;2.63;;
6348;SDS011;3207;42.648;23.406;2023-07-13T07:20:30;12.77;;;3.17;;
6348;SDS011;3207;42.648;23.406;2023-07-13T07:23:05;8.00;;;3.58;;
6348;SDS011;3207;42.648;23.406;2023-07-13T07:25:32;7.15;;;3.28;;
6348;SDS011;3207;42.648;23.406;2023-07-13T07:28:02;6.20;;;3.38;;
6348;SDS011;3207;42.648;23.406;2023-07-13T07:30:29;3.75;;;2.72;;
6348;SDS011;3207;42.648;23.406;2023-07-13T07:32:56;8.25;;;3.25;;
6348;SDS011;3207;42.648;23.406;2023-07-13T07:35:23;4.20;;;3.40;;
6348;SDS011;3207;42.648;23.406;2023-07-13T07:37:49;7.00;;;3.40;;
6348;SDS011;3207;42.648;23.406;2023-07-13T07:40:17;6.85;;;3.22;;
6348;SDS011;3207;42.648;23.406;2023-07-13T07:42:44;9.55;;;3.63;;
6348;SDS011;3207;42.648;23.406;2023-07-13T07:45:11;5.63;;;2.80;;
6348;SDS011;3207;42.648;23.406;2023-07-13T07:47:38;5.82;;;2.97;;
6348;SDS011;3207;42.648;23.406;2023-07-13T07:50:05;7.68;;;2.95;;
6348;SDS011;3207;42.648;23.406;2023-07-13T07:52:32;5.00;;;2.70;;
6348;SDS011;3207;42.648;23.406;2023-07-13T07:54:59;4.05;;;2.72;;
6348;SDS011;3207;42.648;23.406;2023-07-13T07:57:27;6.95;;;3.03;;
6348;SDS011;3207;42.648;23.406;2023-07-13T07:59:54;6.68;;;3.08;;
6348;SDS011;3207;42.648;23.406;2023-07-13T08:02:21;15.55;;;3.35;;
6348;SDS011;3207;42.648;23.406;2023-07-13T08:04:47;5.35;;;3.38;;
6348;SDS011;3207;42.648;23.406;2023-07-13T08:07:14;4.78;;;2.80;;
6348;SDS011;3207;42.648;23.406;2023-07-13T08:09:44;6.85;;;3.20;;
6348;SDS011;3207;42.648;23.406;2023-07-13T08:12:11;9.50;;;3.33;;
6348;SDS011;3207;42.648;23.406;2023-07-13T08:14:39;7.43;;;3.35;;
6348;SDS011;3207;42.648;23.406;2023-07-13T08:17:06;4.53;;;2.72;;
6348;SDS011;3207;42.648;23.406;2023-07-13T08:19:33;10.95;;;3.13;;
6348;SDS011;3207;42.648;23.406;2023-07-13T08:22:00;4.80;;;2.22;;
6348;SDS011;3207;42.648;23.406;2023-07-13T08:24:27;4.90;;;2.92;;
6348;SDS011;3207;42.648;23.406;2023-07-13T08:26:53;4.85;;;2.95;;
6348;SDS011;3207;42.648;23.406;2023-07-13T08:29:20;8.82;;;2.90;;
6348;SDS011;3207;42.648;23.406;2023-07-13T08:31:48;8.18;;;3.15;;
6348;SDS011;3207;42.648;23.406;2023-07-13T08:34:15;5.15;;;3.10;;
6348;SDS011;3207;42.648;23.406;2023-07-13T08:36:42;7.18;;;3.10;;
6348;SDS011;3207;42.648;23.406;2023-07-13T08:39:09;7.95;;;2.85;;
6348;SDS011;3207;42.648;23.406;2023-07-13T08:41:35;3.38;;;2.70;;
6348;SDS011;3207;42.648;23.406;2023-07-13T08:44:03;4.60;;;2.58;;
6348;SDS011;3207;42.648;23.406;2023-07-13T08:46:42;5.18;;;2.97;;
6348;SDS011;3207;42.648;23.406;2023-07-13T08:49:15;4.80;;;3.28;;
6348;SDS011;3207;42.648;23.406;2023-07-13T08:51:49;5.43;;;2.67;;
6348;SDS011;3207;42.648;23.406;2023-07-13T08:54:21;5.78;;;3.40;;
6348;SDS011;3207;42.648;23.406;2023-07-13T08:56:54;4.25;;;2.95;;
6348;SDS011;3207;42.648;23.406;2023-07-13T08:59:24;4.82;;;3.10;;
6348;SDS011;3207;42.648;23.406;2023-07-13T09:02:00;6.70;;;4.32;;
6348;SDS011;3207;42.648;23.406;2023-07-13T09:04:37;7.30;;;4.95;;
6348;SDS011;3207;42.648;23.406;2023-07-13T09:07:11;4.90;;;3.45;;
6348;SDS011;3207;42.648;23.406;2023-07-13T09:09:48;4.78;;;3.88;;
6348;SDS011;3207;42.648;23.406;2023-07-13T09:12:22;4.90;;;3.45;;
6348;SDS011;3207;42.648;23.406;2023-07-13T09:14:57;11.10;;;3.65;;
6348;SDS011;3207;42.648;23.406;2023-07-13T09:17:27;4.72;;;2.85;;
6348;SDS011;3207;42.648;23.406;2023-07-13T09:20:00;5.60;;;3.08;;
6348;SDS011;3207;42.648;23.406;2023-07-13T09:22:31;5.93;;;3.17;;
6348;SDS011;3207;42.648;23.406;2023-07-13T09:25:04;6.13;;;3.25;;
6348;SDS011;3207;42.648;23.406;2023-07-13T09:27:35;8.10;;;3.45;;
6348;SDS011;3207;42.648;23.406;2023-07-13T09:30:21;7.72;;;3.60;;
6348;SDS011;3207;42.648;23.406;2023-07-13T09:32:54;7.05;;;3.40;;
6348;SDS011;3207;42.648;23.406;2023-07-13T09:35:26;4.97;;;3.30;;
6348;SDS011;3207;42.648;23.406;2023-07-13T09:37:57;6.63;;;3.28;;
6348;SDS011;3207;42.648;23.406;2023-07-13T09:40:28;6.18;;;3.63;;
6348;SDS011;3207;42.648;23.406;2023-07-13T09:43:02;6.00;;;3.63;;
6348;SDS011;3207;42.648;23.406;2023-07-13T09:45:33;6.90;;;3.40;;
6348;SDS011;3207;42.648;23.406;2023-07-13T09:48:04;5.28;;;3.35;;
6348;SDS011;3207;42.648;23.406;2023-07-13T09:50:34;6.53;;;3.17;;
6348;SDS011;3207;42.648;23.406;2023-07-13T09:53:01;6.75;;;3.70;;
6348;SDS011;3207;42.648;23.406;2023-07-13T09:55:29;7.78;;;2.95;;
6348;SDS011;3207;42.648;23.406;2023-07-13T09:58:03;7.72;;;3.38;;
6348;SDS011;3207;42.648;23.406;2023-07-13T10:00:31;4.90;;;3.40;;
6348;SDS011;3207;42.648;23.406;2023-07-13T10:03:05;8.27;;;3.72;;
6348;SDS011;3207;42.648;23.406;2023-07-13T10:05:42;6.25;;;3.47;;
6348;SDS011;3207;42.648;23.406;2023-07-13T10:08:16;9.00;;;3.28;;
6348;SDS011;3207;42.648;23.406;2023-07-13T10:10:44;5.40;;;3.78;;
6348;SDS011;3207;42.648;23.406;2023-07-13T10:16:03;6.05;;;3.78;;
6348;SDS011;3207;42.648;23.406;2023-07-13T10:18:44;8.23;;;3.97;;
6348;SDS011;3207;42.648;23.406;2023-07-13T10:21:16;7.03;;;3.83;;
6348;SDS011;3207;42.648;23.406;2023-07-13T10:23:47;6.03;;;3.40;;
6348;SDS011;3207;42.648;23.406;2023-07-13T10:26:19;8.48;;;3.97;;
6348;SDS011;3207;42.648;23.406;2023-07-13T10:28:52;5.63;;;3.35;;
6348;SDS011;3207;42.648;23.406;2023-07-13T10:31:22;6.70;;;3.53;;
6348;SDS011;3207;42.648;23.406;2023-07-13T10:33:50;6.30;;;3.53;;
6348;SDS011;3207;42.648;23.406;2023-07-13T10:36:20;7.10;;;3.60;;
6348;SDS011;3207;42.648;23.406;2023-07-13T10:38:55;5.90;;;4.20;;
6348;SDS011;3207;42.648;23.406;2023-07-13T10:41:26;4.88;;;3.83;;
6348;SDS011;3207;42.648;23.406;2023-07-13T10:43:56;8.43;;;3.85;;
6348;SDS011;3207;42.648;23.406;2023-07-13T10:46:24;8.48;;;4.10;;
6348;SDS011;3207;42.648;23.406;2023-07-13T10:48:54;11.90;;;4.35;;
6348;SDS011;3207;42.648;23.406;2023-07-13T10:51:26;14.40;;;4.50;;
6348;SDS011;3207;42.648;23.406;2023-07-13T10:56:48;6.07;;;4.03;;
6348;SDS011;3207;42.648;23.406;2023-07-13T10:59:17;7.78;;;3.75;;
6348;SDS011;3207;42.648;23.406;2023-07-13T11:01:53;10.27;;;4.20;;
6348;SDS011;3207;42.648;23.406;2023-07-13T11:04:23;4.85;;;3.80;;
6348;SDS011;3207;42.648;23.406;2023-07-13T11:06:56;10.60;;;3.55;;
6348;SDS011;3207;42.648;23.406;2023-07-13T11:09:33;10.13;;;4.28;;
6348;SDS011;3207;42.648;23.406;2023-07-13T11:12:06;4.28;;;3.42;;
6348;SDS011;3207;42.648;23.406;2023-07-13T11:14:42;6.50;;;3.90;;
6348;SDS011;3207;42.648;23.406;2023-07-13T11:20:19;6.50;;;5.20;;
6348;SDS011;3207;42.648;23.406;2023-07-13T11:22:51;11.43;;;4.22;;
6348;SDS011;3207;42.648;23.406;2023-07-13T11:25:33;8.02;;;4.13;;
6348;SDS011;3207;42.648;23.406;2023-07-13T11:28:15;8.38;;;4.05;;
6348;SDS011;3207;42.648;23.406;2023-07-13T11:30:46;5.65;;;4.88;;
6348;SDS011;3207;42.648;23.406;2023-07-13T11:33:16;10.25;;;5.03;;
6348;SDS011;3207;42.648;23.406;2023-07-13T11:35:48;7.95;;;4.85;;
6348;SDS011;3207;42.648;23.406;2023-07-13T11:38:21;5.85;;;3.80;;
6348;SDS011;3207;42.648;23.406;2023-07-13T11:40:54;14.30;;;4.53;;
6348;SDS011;3207;42.648;23.406;2023-07-13T11:43:22;11.02;;;4.60;;
6348;SDS011;3207;42.648;23.406;2023-07-13T11:45:49;5.95;;;4.55;;
6348;SDS011;3207;42.648;23.406;2023-07-13T11:48:24;6.40;;;4.60;;
6348;SDS011;3207;42.648;23.406;2023-07-13T11:50:53;9.35;;;4.20;;
6348;SDS011;3207;42.648;23.406;2023-07-13T11:53:26;9.35;;;4.63;;
6348;SDS011;3207;42.648;23.406;2023-07-13T11:55:56;6.43;;;4.90;;
6348;SDS011;3207;42.648;23.406;2023-07-13T11:58:27;11.20;;;4.50;;
6348;SDS011;3207;42.648;23.406;2023-07-13T12:00:55;8.10;;;5.18;;
6348;SDS011;3207;42.648;23.406;2023-07-13T12:03:26;15.00;;;5.28;;
6348;SDS011;3207;42.648;23.406;2023-07-13T12:05:58;12.05;;;5.15;;
6348;SDS011;3207;42.648;23.406;2023-07-13T12:08:28;9.48;;;5.18;;
6348;SDS011;3207;42.648;23.406;2023-07-13T12:10:56;12.65;;;4.63;;
6348;SDS011;3207;42.648;23.406;2023-07-13T12:13:26;7.18;;;4.03;;
6348;SDS011;3207;42.648;23.406;2023-07-13T12:15:54;13.27;;;4.35;;
6348;SDS011;3207;42.648;23.406;2023-07-13T12:18:23;7.53;;;4.35;;
6348;SDS011;3207;42.648;23.406;2023-07-13T12:20:55;4.60;;;3.80;;
6348;SDS011;3207;42.648;23.406;2023-07-13T12:23:26;5.35;;;3.80;;
6348;SDS011;3207;42.648;23.406;2023-07-13T12:25:58;7.32;;;4.50;;
6348;SDS011;3207;42.648;23.406;2023-07-13T12:28:31;8.20;;;4.30;;
6348;SDS011;3207;42.648;23.406;2023-07-13T12:31:00;8.30;;;3.95;;
6348;SDS011;3207;42.648;23.406;2023-07-13T12:33:30;4.38;;;3.78;;
6348;SDS011;3207;42.648;23.406;2023-07-13T12:35:59;9.43;;;5.18;;
6348;SDS011;3207;42.648;23.406;2023-07-13T12:38:27;6.10;;;3.33;;
6348;SDS011;3207;42.648;23.406;2023-07-13T12:41:03;11.50;;;4.85;;
6348;SDS011;3207;42.648;23.406;2023-07-13T12:43:31;12.45;;;4.85;;
6348;SDS011;3207;42.648;23.406;2023-07-13T12:46:03;11.80;;;3.92;;
6348;SDS011;3207;42.648;23.406;2023-07-13T12:48:37;8.77;;;4.43;;
6348;SDS011;3207;42.648;23.406;2023-07-13T12:51:08;6.10;;;3.80;;
6348;SDS011;3207;42.648;23.406;2023-07-13T12:53:38;5.38;;;3.85;;
6348;SDS011;3207;42.648;23.406;2023-07-13T12:56:11;7.75;;;4.15;;
6348;SDS011;3207;42.648;23.406;2023-07-13T12:58:45;6.72;;;3.50;;
6348;SDS011;3207;42.648;23.406;2023-07-13T13:01:19;7.32;;;3.75;;
6348;SDS011;3207;42.648;23.406;2023-07-13T13:03:48;7.45;;;3.83;;
6348;SDS011;3207;42.648;23.406;2023-07-13T13:06:21;7.55;;;3.85;;
6348;SDS011;3207;42.648;23.406;2023-07-13T13:08:50;6.50;;;3.92;;
6348;SDS011;3207;42.648;23.406;2023-07-13T13:11:21;4.65;;;3.22;;
6348;SDS011;3207;42.648;23.406;2023-07-13T13:13:50;4.03;;;3.63;;
6348;SDS011;3207;42.648;23.406;2023-07-13T13:16:19;10.45;;;4.00;;
6348;SDS011;3207;42.648;23.406;2023-07-13T13:18:47;6.95;;;3.55;;
6348;SDS011;3207;42.648;23.406;2023-07-13T13:21:16;3.75;;;3.13;;
6348;SDS011;3207;42.648;23.406;2023-07-13T13:23:43;5.13;;;3.53;;
6348;SDS011;3207;42.648;23.406;2023-07-13T13:26:11;3.88;;;3.55;;
6348;SDS011;3207;42.648;23.406;2023-07-13T13:28:41;4.35;;;3.15;;
6348;SDS011;3207;42.648;23.406;2023-07-13T13:31:09;7.50;;;3.60;;
6348;SDS011;3207;42.648;23.406;2023-07-13T13:33:37;5.00;;;4.25;;
6348;SDS011;3207;42.648;23.406;2023-07-13T13:36:09;6.13;;;3.50;;
6348;SDS011;3207;42.648;23.406;2023-07-13T13:38:40;5.75;;;3.40;;
6348;SDS011;3207;42.648;23.406;2023-07-13T13:41:08;5.95;;;3.25;;
6348;SDS011;3207;42.648;23.406;2023-07-13T13:43:36;8.55;;;3.25;;
6348;SDS011;3207;42.648;23.406;2023-07-13T13:46:09;7.85;;;3.70;;
6348;SDS011;3207;42.648;23.406;2023-07-13T13:48:40;6.88;;;3.35;;
6348;SDS011;3207;42.648;23.406;2023-07-13T13:51:12;5.22;;;3.30;;
6348;SDS011;3207;42.648;23.406;2023-07-13T13:53:40;3.90;;;3.30;;
6348;SDS011;3207;42.648;23.406;2023-07-13T13:56:07;6.13;;;4.03;;
6348;SDS011;3207;42.648;23.406;2023-07-13T13:58:34;7.95;;;3.00;;
6348;SDS011;3207;42.648;23.406;2023-07-13T14:01:01;3.45;;;2.03;;
6348;SDS011;3207;42.648;23.406;2023-07-13T14:03:32;3.95;;;2.47;;
6348;SDS011;3207;42.648;23.406;2023-07-13T14:05:59;3.17;;;2.67;;
6348;SDS011;3207;42.648;23.406;2023-07-13T14:08:26;4.40;;;2.45;;
6348;SDS011;3207;42.648;23.406;2023-07-13T14:10:53;3.60;;;1.80;;
6348;SDS011;3207;42.648;23.406;2023-07-13T14:13:24;3.03;;;1.83;;
6348;SDS011;3207;42.648;23.406;2023-07-13T14:15:53;2.60;;;2.40;;
6348;SDS011;3207;42.648;23.406;2023-07-13T14:18:20;7.43;;;2.95;;
6348;SDS011;3207;42.648;23.406;2023-07-13T14:20:50;3.42;;;2.42;;
6348;SDS011;3207;42.648;23.406;2023-07-13T14:23:17;3.20;;;2.13;;
6348;SDS011;3207;42.648;23.406;2023-07-13T14:25:44;3.22;;;2.28;;
6348;SDS011;3207;42.648;23.406;2023-07-13T14:28:19;4.63;;;2.20;;
6348;SDS011;3207;42.648;23.406;2023-07-13T14:30:49;5.40;;;2.78;;
6348;SDS011;3207;42.648;23.406;2023-07-13T14:33:22;2.75;;;2.50;;
6348;SDS011;3207;42.648;23.406;2023-07-13T14:35:51;5.07;;;3.20;;
6348;SDS011;3207;42.648;23.406;2023-07-13T14:38:18;5.78;;;2.80;;
6348;SDS011;3207;42.648;23.406;2023-07-13T14:40:46;3.63;;;3.20;;
6348;SDS011;3207;42.648;23.406;2023-07-13T14:43:13;4.45;;;3.75;;
6348;SDS011;3207;42.648;23.406;2023-07-13T14:45:42;3.92;;;2.75;;
6348;SDS011;3207;42.648;23.406;2023-07-13T14:48:15;3.85;;;3.10;;
6348;SDS011;3207;42.648;23.406;2023-07-13T14:50:45;3.78;;;3.17;;
6348;SDS011;3207;42.648;23.406;2023-07-13T14:53:14;3.00;;;2.65;;
6348;SDS011;3207;42.648;23.406;2023-07-13T14:55:40;3.53;;;2.72;;
6348;SDS011;3207;42.648;23.406;2023-07-13T14:58:07;6.68;;;3.70;;
6348;SDS011;3207;42.648;23.406;2023-07-13T15:00:35;4.35;;;3.85;;
6348;SDS011;3207;42.648;23.406;2023-07-13T15:03:02;3.72;;;3.42;;
6348;SDS011;3207;42.648;23.406;2023-07-13T15:05:31;4.75;;;3.15;;
6348;SDS011;3207;42.648;23.406;2023-07-13T15:07:59;4.10;;;2.60;;
6348;SDS011;3207;42.648;23.406;2023-07-13T15:10:29;2.80;;;2.60;;
6348;SDS011;3207;42.648;23.406;2023-07-13T15:12:59;6.30;;;2.25;;
6348;SDS011;3207;42.648;23.406;2023-07-13T15:15:28;5.13;;;2.35;;